sensor_id;sensor_type;location;lat;lon;timestamp;temperature;humidity
20998;DHT22;10657;51.276;6.390;2023-10-08T00:00:47;17.80;99.90
20998;DHT22;10657;51.276;6.390;2023-10-08T00:03:16;17.70;99.90
20998;DHT22;10657;51.276;6.390;2023-10-08T00:05:44;17.70;99.90
20998;DHT22;10657;51.276;6.390;2023-10-08T00:08:13;17.70;99.90
20998;DHT22;10657;51.276;6.390;2023-10-08T00:10:43;17.70;99.90
20998;DHT22;10657;51.276;6.390;2023-10-08T00:13:14;17.70;99.90
20998;DHT22;10657;51.276;6.390;2023-10-08T00:15:44;17.60;99.90
20998;DHT22;10657;51.276;6.390;2023-10-08T00:18:22;17.70;99.90
20998;DHT22;10657;51.276;6.390;2023-10-08T00:20:50;17.60;99.90
20998;DHT22;10657;51.276;6.390;2023-10-08T00:23:46;17.60;99.90
20998;DHT22;10657;51.276;6.390;2023-10-08T00:26:20;17.60;99.90
20998;DHT22;10657;51.276;6.390;2023-10-08T00:29:00;17.60;99.90
20998;DHT22;10657;51.276;6.390;2023-10-08T00:31:27;17.60;99.90
20998;DHT22;10657;51.276;6.390;2023-10-08T00:33:58;17.50;99.90
20998;DHT22;10657;51.276;6.390;2023-10-08T00:36:25;17.50;99.90
20998;DHT22;10657;51.276;6.390;2023-10-08T00:38:51;17.50;99.90
20998;DHT22;10657;51.276;6.390;2023-10-08T00:41:25;17.40;99.90
20998;DHT22;10657;51.276;6.390;2023-10-08T00:43:57;17.40;99.90
20998;DHT22;10657;51.276;6.390;2023-10-08T00:46:26;17.40;99.90
20998;DHT22;10657;51.276;6.390;2023-10-08T00:48:59;17.40;99.90
20998;DHT22;10657;51.276;6.390;2023-10-08T00:51:44;17.30;99.90
20998;DHT22;10657;51.276;6.390;2023-10-08T00:54:12;17.30;99.90
20998;DHT22;10657;51.276;6.390;2023-10-08T00:56:46;17.30;99.90
20998;DHT22;10657;51.276;6.390;2023-10-08T00:59:24;17.20;99.90
20998;DHT22;10657;51.276;6.390;2023-10-08T01:02:00;17.20;99.90
20998;DHT22;10657;51.276;6.390;2023-10-08T01:04:32;17.10;99.90
20998;DHT22;10657;51.276;6.390;2023-10-08T01:07:05;17.10;99.90
20998;DHT22;10657;51.276;6.390;2023-10-08T01:09:43;17.10;99.90
20998;DHT22;10657;51.276;6.390;2023-10-08T01:12:16;17.00;99.90
20998;DHT22;10657;51.276;6.390;2023-10-08T01:14:46;17.00;99.90
20998;DHT22;10657;51.276;6.390;2023-10-08T01:17:14;17.00;99.90
20998;DHT22;10657;51.276;6.390;2023-10-08T01:19:43;16.90;99.90
20998;DHT22;10657;51.276;6.390;2023-10-08T01:22:12;16.90;99.90
20998;DHT22;10657;51.276;6.390;2023-10-08T01:24:45;16.90;99.90
20998;DHT22;10657;51.276;6.390;2023-10-08T01:27:16;16.80;99.90
20998;DHT22;10657;51.276;6.390;2023-10-08T01:29:51;16.80;99.90
20998;DHT22;10657;51.276;6.390;2023-10-08T01:32:19;16.70;99.90
20998;DHT22;10657;51.276;6.390;2023-10-08T01:34:47;16.70;99.90
20998;DHT22;10657;51.276;6.390;2023-10-08T01:37:15;16.70;99.90
20998;DHT22;10657;51.276;6.390;2023-10-08T01:39:46;16.60;99.90
20998;DHT22;10657;51.276;6.390;2023-10-08T01:42:13;16.60;99.90
20998;DHT22;10657;51.276;6.390;2023-10-08T01:44:50;16.60;99.90
20998;DHT22;10657;51.276;6.390;2023-10-08T01:47:17;16.60;99.90
20998;DHT22;10657;51.276;6.390;2023-10-08T01:49:45;16.50;99.90
20998;DHT22;10657;51.276;6.390;2023-10-08T01:52:13;16.50;99.90
20998;DHT22;10657;51.276;6.390;2023-10-08T01:54:49;16.50;99.90
20998;DHT22;10657;51.276;6.390;2023-10-08T01:57:16;16.40;99.90
20998;DHT22;10657;51.276;6.390;2023-10-08T01:59:46;16.40;99.90
20998;DHT22;10657;51.276;6.390;2023-10-08T02:02:13;16.30;99.90
20998;DHT22;10657;51.276;6.390;2023-10-08T02:04:41;16.30;99.90
20998;DHT22;10657;51.276;6.390;2023-10-08T02:07:08;16.30;99.90
20998;DHT22;10657;51.276;6.390;2023-10-08T02:09:40;16.30;99.90
20998;DHT22;10657;51.276;6.390;2023-10-08T02:12:07;16.30;99.90
20998;DHT22;10657;51.276;6.390;2023-10-08T02:14:34;16.30;99.90
20998;DHT22;10657;51.276;6.390;2023-10-08T02:17:02;16.30;99.90
20998;DHT22;10657;51.276;6.390;2023-10-08T02:19:33;16.30;99.90
20998;DHT22;10657;51.276;6.390;2023-10-08T02:22:01;16.30;99.90
20998;DHT22;10657;51.276;6.390;2023-10-08T02:24:30;16.30;99.90
20998;DHT22;10657;51.276;6.390;2023-10-08T02:26:57;16.30;99.90
20998;DHT22;10657;51.276;6.390;2023-10-08T02:29:26;16.30;99.90
20998;DHT22;10657;51.276;6.390;2023-10-08T02:31:53;16.30;99.90
20998;DHT22;10657;51.276;6.390;2023-10-08T02:34:20;16.30;99.90
20998;DHT22;10657;51.276;6.390;2023-10-08T02:36:47;16.40;99.90
20998;DHT22;10657;51.276;6.390;2023-10-08T02:39:14;16.40;99.90
20998;DHT22;10657;51.276;6.390;2023-10-08T02:41:49;16.40;99.90
20998;DHT22;10657;51.276;6.390;2023-10-08T02:44:16;16.30;99.90
20998;DHT22;10657;51.276;6.390;2023-10-08T02:46:45;16.30;99.90
20998;DHT22;10657;51.276;6.390;2023-10-08T02:49:18;16.30;99.90
20998;DHT22;10657;51.276;6.390;2023-10-08T02:51:51;16.20;99.90
20998;DHT22;10657;51.276;6.390;2023-10-08T02:54:19;16.20;99.90
20998;DHT22;10657;51.276;6.390;2023-10-08T02:56:50;16.20;99.90
20998;DHT22;10657;51.276;6.390;2023-10-08T02:59:28;16.20;99.90
20998;DHT22;10657;51.276;6.390;2023-10-08T03:01:55;16.10;99.90
20998;DHT22;10657;51.276;6.390;2023-10-08T03:04:23;16.10;99.90
20998;DHT22;10657;51.276;6.390;2023-10-08T03:06:50;16.10;99.90
20998;DHT22;10657;51.276;6.390;2023-10-08T03:09:17;16.10;99.90
20998;DHT22;10657;51.276;6.390;2023-10-08T03:11:50;16.10;99.90
20998;DHT22;10657;51.276;6.390;2023-10-08T03:14:18;16.10;99.90
20998;DHT22;10657;51.276;6.390;2023-10-08T03:16:53;16.00;99.90
20998;DHT22;10657;51.276;6.390;2023-10-08T03:19:22;16.10;99.90
20998;DHT22;10657;51.276;6.390;2023-10-08T03:21:50;16.10;99.90
20998;DHT22;10657;51.276;6.390;2023-10-08T03:24:23;16.10;99.90
20998;DHT22;10657;51.276;6.390;2023-10-08T03:27:10;16.10;99.90
20998;DHT22;10657;51.276;6.390;2023-10-08T03:29:47;16.00;99.90
20998;DHT22;10657;51.276;6.390;2023-10-08T03:32:14;16.00;99.90
20998;DHT22;10657;51.276;6.390;2023-10-08T03:34:48;16.00;99.90
20998;DHT22;10657;51.276;6.390;2023-10-08T03:37:21;15.90;99.90
20998;DHT22;10657;51.276;6.390;2023-10-08T03:39:55;15.90;99.90
20998;DHT22;10657;51.276;6.390;2023-10-08T03:42:52;15.90;99.90
20998;DHT22;10657;51.276;6.390;2023-10-08T03:45:22;15.90;99.90
20998;DHT22;10657;51.276;6.390;2023-10-08T03:48:08;15.90;99.90
20998;DHT22;10657;51.276;6.390;2023-10-08T03:50:37;15.90;99.90
20998;DHT22;10657;51.276;6.390;2023-10-08T03:53:08;15.90;99.90
20998;DHT22;10657;51.276;6.390;2023-10-08T03:55:39;15.90;99.90
20998;DHT22;10657;51.276;6.390;2023-10-08T03:58:08;15.90;99.90
20998;DHT22;10657;51.276;6.390;2023-10-08T04:00:46;15.80;99.90
20998;DHT22;10657;51.276;6.390;2023-10-08T04:03:12;15.80;99.90
20998;DHT22;10657;51.276;6.390;2023-10-08T04:05:39;15.80;99.90
20998;DHT22;10657;51.276;6.390;2023-10-08T04:08:31;15.80;99.90
20998;DHT22;10657;51.276;6.390;2023-10-08T04:11:09;15.70;99.90
20998;DHT22;10657;51.276;6.390;2023-10-08T04:13:48;15.70;99.90
20998;DHT22;10657;51.276;6.390;2023-10-08T04:16:15;15.70;99.90
20998;DHT22;10657;51.276;6.390;2023-10-08T04:18:47;15.80;99.90
20998;DHT22;10657;51.276;6.390;2023-10-08T04:21:19;15.80;99.90
20998;DHT22;10657;51.276;6.390;2023-10-08T04:23:47;15.80;99.90
20998;DHT22;10657;51.276;6.390;2023-10-08T04:26:19;15.80;99.90
20998;DHT22;10657;51.276;6.390;2023-10-08T04:28:54;15.70;99.90
20998;DHT22;10657;51.276;6.390;2023-10-08T04:31:24;15.70;99.90
20998;DHT22;10657;51.276;6.390;2023-10-08T04:33:55;15.70;99.90
20998;DHT22;10657;51.276;6.390;2023-10-08T04:36:27;15.80;99.90
20998;DHT22;10657;51.276;6.390;2023-10-08T04:38:53;15.80;99.90
20998;DHT22;10657;51.276;6.390;2023-10-08T04:41:21;15.80;99.90
20998;DHT22;10657;51.276;6.390;2023-10-08T04:43:54;15.80;99.90
20998;DHT22;10657;51.276;6.390;2023-10-08T04:46:22;15.80;99.90
20998;DHT22;10657;51.276;6.390;2023-10-08T04:49:14;15.90;99.90
20998;DHT22;10657;51.276;6.390;2023-10-08T04:51:59;15.80;99.90
20998;DHT22;10657;51.276;6.390;2023-10-08T04:54:27;15.90;99.90
20998;DHT22;10657;51.276;6.390;2023-10-08T04:57:01;15.90;99.90
20998;DHT22;10657;51.276;6.390;2023-10-08T04:59:30;15.90;99.90
20998;DHT22;10657;51.276;6.390;2023-10-08T05:02:01;15.90;99.90
20998;DHT22;10657;51.276;6.390;2023-10-08T05:04:49;15.90;99.90
20998;DHT22;10657;51.276;6.390;2023-10-08T05:07:19;15.90;99.90
20998;DHT22;10657;51.276;6.390;2023-10-08T05:10:05;15.80;99.90
20998;DHT22;10657;51.276;6.390;2023-10-08T05:12:34;15.70;99.90
20998;DHT22;10657;51.276;6.390;2023-10-08T05:15:05;15.70;99.90
20998;DHT22;10657;51.276;6.390;2023-10-08T05:17:44;15.60;99.90
20998;DHT22;10657;51.276;6.390;2023-10-08T05:20:19;15.60;99.90
20998;DHT22;10657;51.276;6.390;2023-10-08T05:22:56;15.40;99.90
20998;DHT22;10657;51.276;6.390;2023-10-08T05:25:42;15.50;99.90
20998;DHT22;10657;51.276;6.390;2023-10-08T05:28:27;15.50;99.90
20998;DHT22;10657;51.276;6.390;2023-10-08T05:30:56;15.40;99.90
20998;DHT22;10657;51.276;6.390;2023-10-08T05:33:48;15.40;99.90
20998;DHT22;10657;51.276;6.390;2023-10-08T05:36:24;15.40;99.90
20998;DHT22;10657;51.276;6.390;2023-10-08T05:39:17;15.40;99.90
20998;DHT22;10657;51.276;6.390;2023-10-08T05:42:00;15.40;99.90
20998;DHT22;10657;51.276;6.390;2023-10-08T05:44:53;15.40;99.90
20998;DHT22;10657;51.276;6.390;2023-10-08T05:47:35;15.40;99.90
20998;DHT22;10657;51.276;6.390;2023-10-08T05:50:04;15.40;99.90
20998;DHT22;10657;51.276;6.390;2023-10-08T05:52:44;15.50;99.90
20998;DHT22;10657;51.276;6.390;2023-10-08T05:55:28;15.50;99.90
20998;DHT22;10657;51.276;6.390;2023-10-08T05:58:03;15.40;99.90
20998;DHT22;10657;51.276;6.390;2023-10-08T06:00:44;15.40;99.90
20998;DHT22;10657;51.276;6.390;2023-10-08T06:03:18;15.40;99.90
20998;DHT22;10657;51.276;6.390;2023-10-08T06:06:07;15.40;99.90
20998;DHT22;10657;51.276;6.390;2023-10-08T06:08:41;15.40;99.90
20998;DHT22;10657;51.276;6.390;2023-10-08T06:11:26;15.40;99.90
20998;DHT22;10657;51.276;6.390;2023-10-08T06:14:11;15.30;99.90
20998;DHT22;10657;51.276;6.390;2023-10-08T06:16:57;15.30;99.90
20998;DHT22;10657;51.276;6.390;2023-10-08T06:19:50;15.30;99.90
20998;DHT22;10657;51.276;6.390;2023-10-08T06:22:19;15.20;99.90
20998;DHT22;10657;51.276;6.390;2023-10-08T06:24:50;15.30;99.90
20998;DHT22;10657;51.276;6.390;2023-10-08T06:27:36;15.30;99.90
20998;DHT22;10657;51.276;6.390;2023-10-08T06:30:03;15.30;99.90
20998;DHT22;10657;51.276;6.390;2023-10-08T06:32:30;15.30;99.90
20998;DHT22;10657;51.276;6.390;2023-10-08T06:34:57;15.40;99.90
20998;DHT22;10657;51.276;6.390;2023-10-08T06:37:24;15.50;99.90
20998;DHT22;10657;51.276;6.390;2023-10-08T06:39:51;15.50;99.90
20998;DHT22;10657;51.276;6.390;2023-10-08T06:42:18;15.60;99.90
20998;DHT22;10657;51.276;6.390;2023-10-08T06:44:45;15.50;99.90
20998;DHT22;10657;51.276;6.390;2023-10-08T06:47:15;15.50;99.90
20998;DHT22;10657;51.276;6.390;2023-10-08T06:49:43;15.40;99.90
20998;DHT22;10657;51.276;6.390;2023-10-08T06:52:10;15.40;99.90
20998;DHT22;10657;51.276;6.390;2023-10-08T06:54:39;15.40;99.90
20998;DHT22;10657;51.276;6.390;2023-10-08T06:57:06;15.50;99.90
20998;DHT22;10657;51.276;6.390;2023-10-08T06:59:40;15.40;99.90
20998;DHT22;10657;51.276;6.390;2023-10-08T07:02:09;15.40;99.90
20998;DHT22;10657;51.276;6.390;2023-10-08T07:04:37;15.40;99.90
20998;DHT22;10657;51.276;6.390;2023-10-08T07:07:04;15.40;99.90
20998;DHT22;10657;51.276;6.390;2023-10-08T07:09:35;15.40;99.90
20998;DHT22;10657;51.276;6.390;2023-10-08T07:12:03;15.30;99.90
20998;DHT22;10657;51.276;6.390;2023-10-08T07:14:32;15.30;99.90
20998;DHT22;10657;51.276;6.390;2023-10-08T07:17:00;15.40;99.90
20998;DHT22;10657;51.276;6.390;2023-10-08T07:19:29;15.40;99.90
20998;DHT22;10657;51.276;6.390;2023-10-08T07:22:07;15.30;99.90
20998;DHT22;10657;51.276;6.390;2023-10-08T07:24:46;15.40;99.90
20998;DHT22;10657;51.276;6.390;2023-10-08T07:27:12;15.40;99.90
20998;DHT22;10657;51.276;6.390;2023-10-08T07:29:40;15.40;99.90
20998;DHT22;10657;51.276;6.390;2023-10-08T07:32:07;15.50;99.90
20998;DHT22;10657;51.276;6.390;2023-10-08T07:34:37;15.50;99.90
20998;DHT22;10657;51.276;6.390;2023-10-08T07:37:04;15.50;99.90
20998;DHT22;10657;51.276;6.390;2023-10-08T07:39:32;15.60;99.90
20998;DHT22;10657;51.276;6.390;2023-10-08T07:42:04;15.70;99.90
20998;DHT22;10657;51.276;6.390;2023-10-08T07:44:35;15.70;99.90
20998;DHT22;10657;51.276;6.390;2023-10-08T07:47:08;15.70;99.90
20998;DHT22;10657;51.276;6.390;2023-10-08T07:49:38;15.80;99.90
20998;DHT22;10657;51.276;6.390;2023-10-08T07:52:05;15.80;99.90
20998;DHT22;10657;51.276;6.390;2023-10-08T07:54:32;15.90;99.90
20998;DHT22;10657;51.276;6.390;2023-10-08T07:57:03;15.90;99.90
20998;DHT22;10657;51.276;6.390;2023-10-08T07:59:37;15.90;99.90
20998;DHT22;10657;51.276;6.390;2023-10-08T08:02:14;15.90;99.90
20998;DHT22;10657;51.276;6.390;2023-10-08T08:04:42;15.90;99.90
20998;DHT22;10657;51.276;6.390;2023-10-08T08:07:18;15.90;99.90
20998;DHT22;10657;51.276;6.390;2023-10-08T08:09:47;16.00;99.90
20998;DHT22;10657;51.276;6.390;2023-10-08T08:12:27;15.90;99.90
20998;DHT22;10657;51.276;6.390;2023-10-08T08:14:59;16.00;99.90
20998;DHT22;10657;51.276;6.390;2023-10-08T08:17:29;16.10;99.90
20998;DHT22;10657;51.276;6.390;2023-10-08T08:19:57;16.10;99.90
20998;DHT22;10657;51.276;6.390;2023-10-08T08:22:24;16.20;99.90
20998;DHT22;10657;51.276;6.390;2023-10-08T08:24:58;16.20;99.90
20998;DHT22;10657;51.276;6.390;2023-10-08T08:27:43;16.30;99.90
20998;DHT22;10657;51.276;6.390;2023-10-08T08:30:15;16.30;99.90
20998;DHT22;10657;51.276;6.390;2023-10-08T08:32:44;16.30;99.90
20998;DHT22;10657;51.276;6.390;2023-10-08T08:35:11;16.40;99.90
20998;DHT22;10657;51.276;6.390;2023-10-08T08:37:43;16.50;99.90
20998;DHT22;10657;51.276;6.390;2023-10-08T08:40:13;16.50;99.90
20998;DHT22;10657;51.276;6.390;2023-10-08T08:42:47;16.60;99.90
20998;DHT22;10657;51.276;6.390;2023-10-08T08:45:21;16.60;99.90
20998;DHT22;10657;51.276;6.390;2023-10-08T08:47:49;16.60;99.90
20998;DHT22;10657;51.276;6.390;2023-10-08T08:50:16;16.60;99.90
20998;DHT22;10657;51.276;6.390;2023-10-08T08:52:44;16.60;99.90
20998;DHT22;10657;51.276;6.390;2023-10-08T08:55:12;16.70;99.90
20998;DHT22;10657;51.276;6.390;2023-10-08T08:57:47;16.70;99.90
20998;DHT22;10657;51.276;6.390;2023-10-08T09:00:16;16.60;99.90
20998;DHT22;10657;51.276;6.390;2023-10-08T09:02:45;16.70;99.90
20998;DHT22;10657;51.276;6.390;2023-10-08T09:05:15;16.80;99.90
20998;DHT22;10657;51.276;6.390;2023-10-08T09:07:56;16.80;99.90
20998;DHT22;10657;51.276;6.390;2023-10-08T09:10:24;16.80;99.90
20998;DHT22;10657;51.276;6.390;2023-10-08T09:12:58;16.70;99.90
20998;DHT22;10657;51.276;6.390;2023-10-08T09:15:26;16.80;99.90
20998;DHT22;10657;51.276;6.390;2023-10-08T09:17:54;16.90;99.90
20998;DHT22;10657;51.276;6.390;2023-10-08T09:20:22;17.00;99.90
20998;DHT22;10657;51.276;6.390;2023-10-08T09:23:09;17.10;99.90
20998;DHT22;10657;51.276;6.390;2023-10-08T09:25:39;17.10;99.90
20998;DHT22;10657;51.276;6.390;2023-10-08T09:28:07;17.00;99.90
20998;DHT22;10657;51.276;6.390;2023-10-08T09:30:37;17.20;99.90
20998;DHT22;10657;51.276;6.390;2023-10-08T09:33:05;17.20;99.90
20998;DHT22;10657;51.276;6.390;2023-10-08T09:35:33;17.30;99.90
20998;DHT22;10657;51.276;6.390;2023-10-08T09:38:04;17.30;99.90
20998;DHT22;10657;51.276;6.390;2023-10-08T09:40:31;17.40;99.90
20998;DHT22;10657;51.276;6.390;2023-10-08T09:42:59;17.40;99.90
20998;DHT22;10657;51.276;6.390;2023-10-08T09:45:25;17.40;99.90
20998;DHT22;10657;51.276;6.390;2023-10-08T09:47:56;17.40;99.90
20998;DHT22;10657;51.276;6.390;2023-10-08T09:50:29;17.40;99.90
20998;DHT22;10657;51.276;6.390;2023-10-08T09:53:11;17.40;99.90
20998;DHT22;10657;51.276;6.390;2023-10-08T09:55:57;17.50;99.90
20998;DHT22;10657;51.276;6.390;2023-10-08T09:58:26;17.80;99.90
20998;DHT22;10657;51.276;6.390;2023-10-08T10:00:55;17.90;99.90
20998;DHT22;10657;51.276;6.390;2023-10-08T10:03:27;17.80;99.90
20998;DHT22;10657;51.276;6.390;2023-10-08T10:05:55;17.80;99.90
20998;DHT22;10657;51.276;6.390;2023-10-08T10:08:26;17.80;99.90
20998;DHT22;10657;51.276;6.390;2023-10-08T10:10:59;17.70;99.90
20998;DHT22;10657;51.276;6.390;2023-10-08T10:13:33;17.70;99.90
20998;DHT22;10657;51.276;6.390;2023-10-08T10:16:00;17.80;99.90
20998;DHT22;10657;51.276;6.390;2023-10-08T10:18:28;17.90;99.90
20998;DHT22;10657;51.276;6.390;2023-10-08T10:23:46;18.00;99.90
20998;DHT22;10657;51.276;6.390;2023-10-08T10:26:35;18.00;99.90
20998;DHT22;10657;51.276;6.390;2023-10-08T10:31:44;18.10;99.90
20998;DHT22;10657;51.276;6.390;2023-10-08T10:34:18;18.10;99.90
20998;DHT22;10657;51.276;6.390;2023-10-08T10:36:46;18.20;99.90
20998;DHT22;10657;51.276;6.390;2023-10-08T10:39:17;18.20;99.90
20998;DHT22;10657;51.276;6.390;2023-10-08T10:41:48;18.20;99.90
20998;DHT22;10657;51.276;6.390;2023-10-08T10:44:15;18.40;99.90
20998;DHT22;10657;51.276;6.390;2023-10-08T10:46:46;18.50;99.90
20998;DHT22;10657;51.276;6.390;2023-10-08T10:49:27;18.60;99.90
20998;DHT22;10657;51.276;6.390;2023-10-08T10:51:58;18.70;99.90
20998;DHT22;10657;51.276;6.390;2023-10-08T10:54:25;18.50;99.90
20998;DHT22;10657;51.276;6.390;2023-10-08T10:56:53;18.40;99.90
20998;DHT22;10657;51.276;6.390;2023-10-08T10:59:45;18.50;99.90
20998;DHT22;10657;51.276;6.390;2023-10-08T11:02:19;18.60;99.90
20998;DHT22;10657;51.276;6.390;2023-10-08T11:04:57;18.60;99.90
20998;DHT22;10657;51.276;6.390;2023-10-08T11:07:36;18.60;99.90
20998;DHT22;10657;51.276;6.390;2023-10-08T11:10:07;18.60;99.90
20998;DHT22;10657;51.276;6.390;2023-10-08T11:12:42;18.60;99.90
20998;DHT22;10657;51.276;6.390;2023-10-08T11:15:13;18.60;99.90
20998;DHT22;10657;51.276;6.390;2023-10-08T11:17:44;18.60;99.90
20998;DHT22;10657;51.276;6.390;2023-10-08T11:20:27;18.60;99.90
20998;DHT22;10657;51.276;6.390;2023-10-08T11:22:54;18.70;99.90
20998;DHT22;10657;51.276;6.390;2023-10-08T11:25:24;18.60;99.90
20998;DHT22;10657;51.276;6.390;2023-10-08T11:27:57;18.80;99.90
20998;DHT22;10657;51.276;6.390;2023-10-08T11:30:35;18.80;99.90
20998;DHT22;10657;51.276;6.390;2023-10-08T11:33:02;18.90;99.90
20998;DHT22;10657;51.276;6.390;2023-10-08T11:35:33;18.90;99.90
20998;DHT22;10657;51.276;6.390;2023-10-08T11:38:00;18.80;99.90
20998;DHT22;10657;51.276;6.390;2023-10-08T11:40:29;18.70;99.90
20998;DHT22;10657;51.276;6.390;2023-10-08T11:42:59;18.70;99.90
20998;DHT22;10657;51.276;6.390;2023-10-08T11:45:30;18.80;99.90
20998;DHT22;10657;51.276;6.390;2023-10-08T11:48:06;18.80;99.90
20998;DHT22;10657;51.276;6.390;2023-10-08T11:50:39;18.60;99.90
20998;DHT22;10657;51.276;6.390;2023-10-08T11:53:07;18.70;99.90
20998;DHT22;10657;51.276;6.390;2023-10-08T11:55:34;18.60;99.90
20998;DHT22;10657;51.276;6.390;2023-10-08T11:58:06;18.70;99.90
20998;DHT22;10657;51.276;6.390;2023-10-08T12:00:44;18.60;99.90
20998;DHT22;10657;51.276;6.390;2023-10-08T12:03:14;18.50;99.90
20998;DHT22;10657;51.276;6.390;2023-10-08T12:05:48;18.50;99.90
20998;DHT22;10657;51.276;6.390;2023-10-08T12:08:18;18.60;99.90
20998;DHT22;10657;51.276;6.390;2023-10-08T12:10:47;18.60;99.90
20998;DHT22;10657;51.276;6.390;2023-10-08T12:13:15;18.60;99.90
20998;DHT22;10657;51.276;6.390;2023-10-08T12:15:46;18.60;99.90
20998;DHT22;10657;51.276;6.390;2023-10-08T12:18:14;18.60;99.90
20998;DHT22;10657;51.276;6.390;2023-10-08T12:20:56;18.50;99.90
20998;DHT22;10657;51.276;6.390;2023-10-08T12:23:22;18.50;99.90
20998;DHT22;10657;51.276;6.390;2023-10-08T12:25:53;18.50;99.90
20998;DHT22;10657;51.276;6.390;2023-10-08T12:28:23;18.50;99.90
20998;DHT22;10657;51.276;6.390;2023-10-08T12:30:51;18.50;99.90
20998;DHT22;10657;51.276;6.390;2023-10-08T12:33:23;18.50;99.90
20998;DHT22;10657;51.276;6.390;2023-10-08T12:35:53;18.50;99.90
20998;DHT22;10657;51.276;6.390;2023-10-08T12:38:20;18.50;99.90
20998;DHT22;10657;51.276;6.390;2023-10-08T12:40:50;18.50;99.90
20998;DHT22;10657;51.276;6.390;2023-10-08T12:43:20;18.50;99.90
20998;DHT22;10657;51.276;6.390;2023-10-08T12:45:51;18.60;99.90
20998;DHT22;10657;51.276;6.390;2023-10-08T12:48:22;18.70;99.90
20998;DHT22;10657;51.276;6.390;2023-10-08T12:50:51;18.80;99.90
20998;DHT22;10657;51.276;6.390;2023-10-08T12:53:28;18.90;99.90
20998;DHT22;10657;51.276;6.390;2023-10-08T12:56:01;19.10;99.90
20998;DHT22;10657;51.276;6.390;2023-10-08T12:58:42;19.20;99.90
20998;DHT22;10657;51.276;6.390;2023-10-08T13:01:11;19.40;99.90
20998;DHT22;10657;51.276;6.390;2023-10-08T13:03:38;19.50;99.90
20998;DHT22;10657;51.276;6.390;2023-10-08T13:06:18;19.60;99.90
20998;DHT22;10657;51.276;6.390;2023-10-08T13:08:49;19.60;99.90
20998;DHT22;10657;51.276;6.390;2023-10-08T13:11:20;19.60;99.90
20998;DHT22;10657;51.276;6.390;2023-10-08T13:13:53;19.50;99.90
20998;DHT22;10657;51.276;6.390;2023-10-08T13:16:20;19.60;99.90
20998;DHT22;10657;51.276;6.390;2023-10-08T13:18:50;19.80;99.90
20998;DHT22;10657;51.276;6.390;2023-10-08T13:21:18;19.80;99.90
20998;DHT22;10657;51.276;6.390;2023-10-08T13:23:51;19.90;99.90
20998;DHT22;10657;51.276;6.390;2023-10-08T13:26:19;19.90;99.90
20998;DHT22;10657;51.276;6.390;2023-10-08T13:28:49;19.90;99.90
20998;DHT22;10657;51.276;6.390;2023-10-08T13:31:16;19.80;99.90
20998;DHT22;10657;51.276;6.390;2023-10-08T13:33:44;19.90;99.90
20998;DHT22;10657;51.276;6.390;2023-10-08T13:36:15;20.00;99.90
20998;DHT22;10657;51.276;6.390;2023-10-08T13:38:45;20.30;99.90
20998;DHT22;10657;51.276;6.390;2023-10-08T13:41:15;20.30;99.90
20998;DHT22;10657;51.276;6.390;2023-10-08T13:43:43;20.20;99.90
20998;DHT22;10657;51.276;6.390;2023-10-08T13:46:18;20.30;99.90
20998;DHT22;10657;51.276;6.390;2023-10-08T13:48:47;20.50;99.90
20998;DHT22;10657;51.276;6.390;2023-10-08T13:51:22;20.60;99.90
20998;DHT22;10657;51.276;6.390;2023-10-08T13:53:54;20.50;99.90
20998;DHT22;10657;51.276;6.390;2023-10-08T13:56:36;20.70;99.90
20998;DHT22;10657;51.276;6.390;2023-10-08T13:59:04;20.80;99.90
20998;DHT22;10657;51.276;6.390;2023-10-08T14:01:41;21.00;99.90
20998;DHT22;10657;51.276;6.390;2023-10-08T14:04:18;21.00;99.90
20998;DHT22;10657;51.276;6.390;2023-10-08T14:06:53;21.20;99.90
20998;DHT22;10657;51.276;6.390;2023-10-08T14:09:21;21.30;99.90
20998;DHT22;10657;51.276;6.390;2023-10-08T14:11:57;21.10;99.90
20998;DHT22;10657;51.276;6.390;2023-10-08T14:14:24;21.10;99.90
20998;DHT22;10657;51.276;6.390;2023-10-08T14:16:56;20.90;99.90
20998;DHT22;10657;51.276;6.390;2023-10-08T14:19:29;20.80;99.90
20998;DHT22;10657;51.276;6.390;2023-10-08T14:22:06;20.80;99.90
20998;DHT22;10657;51.276;6.390;2023-10-08T14:24:35;20.60;99.90
20998;DHT22;10657;51.276;6.390;2023-10-08T14:27:05;20.50;99.90
20998;DHT22;10657;51.276;6.390;2023-10-08T14:29:38;20.50;99.90
20998;DHT22;10657;51.276;6.390;2023-10-08T14:32:10;20.40;99.90
20998;DHT22;10657;51.276;6.390;2023-10-08T14:34:37;20.40;99.90
20998;DHT22;10657;51.276;6.390;2023-10-08T14:37:13;20.20;99.90
20998;DHT22;10657;51.276;6.390;2023-10-08T14:39:58;20.30;99.90
20998;DHT22;10657;51.276;6.390;2023-10-08T14:42:44;20.40;99.90
20998;DHT22;10657;51.276;6.390;2023-10-08T14:45:29;20.30;99.90
20998;DHT22;10657;51.276;6.390;2023-10-08T14:48:01;20.30;99.90
20998;DHT22;10657;51.276;6.390;2023-10-08T14:50:30;20.10;99.90
20998;DHT22;10657;51.276;6.390;2023-10-08T14:53:00;20.10;99.90
20998;DHT22;10657;51.276;6.390;2023-10-08T14:55:28;20.10;99.90
20998;DHT22;10657;51.276;6.390;2023-10-08T14:57:55;20.10;99.90
20998;DHT22;10657;51.276;6.390;2023-10-08T15:00:22;20.10;99.90
20998;DHT22;10657;51.276;6.390;2023-10-08T15:02:53;20.20;99.90
20998;DHT22;10657;51.276;6.390;2023-10-08T15:05:21;20.30;99.90
20998;DHT22;10657;51.276;6.390;2023-10-08T15:07:49;20.40;99.90
20998;DHT22;10657;51.276;6.390;2023-10-08T15:10:16;20.50;99.90
20998;DHT22;10657;51.276;6.390;2023-10-08T15:12:44;20.50;99.90
20998;DHT22;10657;51.276;6.390;2023-10-08T15:15:10;20.80;99.90
20998;DHT22;10657;51.276;6.390;2023-10-08T15:17:41;20.80;99.90
20998;DHT22;10657;51.276;6.390;2023-10-08T15:20:09;20.90;99.90
20998;DHT22;10657;51.276;6.390;2023-10-08T15:22:41;21.20;99.90
20998;DHT22;10657;51.276;6.390;2023-10-08T15:25:13;21.20;99.90
20998;DHT22;10657;51.276;6.390;2023-10-08T15:27:41;21.30;99.90
20998;DHT22;10657;51.276;6.390;2023-10-08T15:30:09;21.40;99.90
20998;DHT22;10657;51.276;6.390;2023-10-08T15:32:39;21.30;99.90
20998;DHT22;10657;51.276;6.390;2023-10-08T15:35:10;21.30;99.90
20998;DHT22;10657;51.276;6.390;2023-10-08T15:37:38;21.30;99.90
20998;DHT22;10657;51.276;6.390;2023-10-08T15:40:05;21.20;99.90
20998;DHT22;10657;51.276;6.390;2023-10-08T15:42:36;21.10;99.90
20998;DHT22;10657;51.276;6.390;2023-10-08T15:45:04;21.10;99.90
20998;DHT22;10657;51.276;6.390;2023-10-08T15:47:34;20.80;99.90
20998;DHT22;10657;51.276;6.390;2023-10-08T15:50:02;20.70;99.90
20998;DHT22;10657;51.276;6.390;2023-10-08T15:52:28;20.70;99.90
20998;DHT22;10657;51.276;6.390;2023-10-08T15:54:55;20.60;99.90
20998;DHT22;10657;51.276;6.390;2023-10-08T15:57:22;20.50;99.90
20998;DHT22;10657;51.276;6.390;2023-10-08T15:59:49;20.40;99.90
20998;DHT22;10657;51.276;6.390;2023-10-08T16:02:16;20.30;99.90
20998;DHT22;10657;51.276;6.390;2023-10-08T16:04:44;20.20;99.90